sensor_id;sensor_type;location;lat;lon;timestamp;temperature;humidity
7016;DHT22;3548;48.402;9.990;2024-01-06T00:00:56;6.50;99.90
7016;DHT22;3548;48.402;9.990;2024-01-06T00:03:22;6.50;99.90
7016;DHT22;3548;48.402;9.990;2024-01-06T00:05:47;6.50;99.90
7016;DHT22;3548;48.402;9.990;2024-01-06T00:08:13;6.40;99.90
7016;DHT22;3548;48.402;9.990;2024-01-06T00:10:38;6.40;99.90
7016;DHT22;3548;48.402;9.990;2024-01-06T00:13:04;6.40;99.90
7016;DHT22;3548;48.402;9.990;2024-01-06T00:15:29;6.40;99.90
7016;DHT22;3548;48.402;9.990;2024-01-06T00:17:55;6.40;99.90
7016;DHT22;3548;48.402;9.990;2024-01-06T00:20:20;6.40;99.90
7016;DHT22;3548;48.402;9.990;2024-01-06T00:22:46;6.30;99.90
7016;DHT22;3548;48.402;9.990;2024-01-06T00:25:12;6.20;99.90
7016;DHT22;3548;48.402;9.990;2024-01-06T00:27:37;6.10;99.90
7016;DHT22;3548;48.402;9.990;2024-01-06T00:30:03;6.10;99.90
7016;DHT22;3548;48.402;9.990;2024-01-06T00:32:29;6.00;99.90
7016;DHT22;3548;48.402;9.990;2024-01-06T00:34:54;6.00;99.90
7016;DHT22;3548;48.402;9.990;2024-01-06T00:37:20;6.00;99.90
7016;DHT22;3548;48.402;9.990;2024-01-06T00:39:45;6.00;99.90
7016;DHT22;3548;48.402;9.990;2024-01-06T00:42:11;6.00;99.90
7016;DHT22;3548;48.402;9.990;2024-01-06T00:44:36;6.00;99.90
7016;DHT22;3548;48.402;9.990;2024-01-06T00:47:03;6.00;99.90
7016;DHT22;3548;48.402;9.990;2024-01-06T00:49:28;6.00;99.90
7016;DHT22;3548;48.402;9.990;2024-01-06T00:51:54;5.90;99.90
7016;DHT22;3548;48.402;9.990;2024-01-06T00:54:19;5.90;99.90
7016;DHT22;3548;48.402;9.990;2024-01-06T00:56:45;5.90;99.90
7016;DHT22;3548;48.402;9.990;2024-01-06T00:59:10;5.90;99.90
7016;DHT22;3548;48.402;9.990;2024-01-06T01:01:36;5.90;99.90
7016;DHT22;3548;48.402;9.990;2024-01-06T01:04:01;5.90;99.90
7016;DHT22;3548;48.402;9.990;2024-01-06T01:06:27;5.90;99.90
7016;DHT22;3548;48.402;9.990;2024-01-06T01:08:53;6.00;99.90
7016;DHT22;3548;48.402;9.990;2024-01-06T01:11:19;6.00;99.90
7016;DHT22;3548;48.402;9.990;2024-01-06T01:13:44;6.00;99.90
7016;DHT22;3548;48.402;9.990;2024-01-06T01:16:10;6.00;99.90
7016;DHT22;3548;48.402;9.990;2024-01-06T01:18:35;6.00;99.90
7016;DHT22;3548;48.402;9.990;2024-01-06T01:21:01;6.00;99.90
7016;DHT22;3548;48.402;9.990;2024-01-06T01:23:26;6.00;99.90
7016;DHT22;3548;48.402;9.990;2024-01-06T01:25:53;5.90;99.90
7016;DHT22;3548;48.402;9.990;2024-01-06T01:28:19;5.90;99.90
7016;DHT22;3548;48.402;9.990;2024-01-06T01:30:45;5.90;99.90
7016;DHT22;3548;48.402;9.990;2024-01-06T01:33:10;5.90;99.90
7016;DHT22;3548;48.402;9.990;2024-01-06T01:35:36;5.90;99.90
7016;DHT22;3548;48.402;9.990;2024-01-06T01:38:01;5.90;99.90
7016;DHT22;3548;48.402;9.990;2024-01-06T01:40:27;5.90;99.90
7016;DHT22;3548;48.402;9.990;2024-01-06T01:42:52;5.90;99.90
7016;DHT22;3548;48.402;9.990;2024-01-06T01:45:18;5.90;99.90
7016;DHT22;3548;48.402;9.990;2024-01-06T01:47:43;5.90;99.90
7016;DHT22;3548;48.402;9.990;2024-01-06T01:50:12;5.90;99.90
7016;DHT22;3548;48.402;9.990;2024-01-06T01:52:38;5.80;99.90
7016;DHT22;3548;48.402;9.990;2024-01-06T01:55:05;5.80;99.90
7016;DHT22;3548;48.402;9.990;2024-01-06T01:57:31;5.80;99.90
7016;DHT22;3548;48.402;9.990;2024-01-06T01:59:57;5.80;99.90
7016;DHT22;3548;48.402;9.990;2024-01-06T02:02:22;5.80;99.90
7016;DHT22;3548;48.402;9.990;2024-01-06T02:04:48;5.80;99.90
7016;DHT22;3548;48.402;9.990;2024-01-06T02:07:14;5.80;99.90
7016;DHT22;3548;48.402;9.990;2024-01-06T02:09:39;5.80;99.90
7016;DHT22;3548;48.402;9.990;2024-01-06T02:12:05;5.80;99.90
7016;DHT22;3548;48.402;9.990;2024-01-06T02:14:31;5.80;99.90
7016;DHT22;3548;48.402;9.990;2024-01-06T02:16:58;5.80;99.90
7016;DHT22;3548;48.402;9.990;2024-01-06T02:19:23;5.80;99.90
7016;DHT22;3548;48.402;9.990;2024-01-06T02:21:52;5.80;99.90
7016;DHT22;3548;48.402;9.990;2024-01-06T02:24:18;5.80;99.90
7016;DHT22;3548;48.402;9.990;2024-01-06T02:26:44;5.80;99.90
7016;DHT22;3548;48.402;9.990;2024-01-06T02:29:09;5.80;99.90
7016;DHT22;3548;48.402;9.990;2024-01-06T02:31:35;5.80;99.90
7016;DHT22;3548;48.402;9.990;2024-01-06T02:34:00;5.80;99.90
7016;DHT22;3548;48.402;9.990;2024-01-06T02:36:26;5.70;99.90
7016;DHT22;3548;48.402;9.990;2024-01-06T02:38:51;5.70;99.90
7016;DHT22;3548;48.402;9.990;2024-01-06T02:41:17;5.70;99.90
7016;DHT22;3548;48.402;9.990;2024-01-06T02:43:43;5.70;99.90
7016;DHT22;3548;48.402;9.990;2024-01-06T02:46:08;5.70;99.90
7016;DHT22;3548;48.402;9.990;2024-01-06T02:48:34;5.70;99.90
7016;DHT22;3548;48.402;9.990;2024-01-06T02:50:59;5.60;99.90
7016;DHT22;3548;48.402;9.990;2024-01-06T02:53:25;5.50;99.90
7016;DHT22;3548;48.402;9.990;2024-01-06T02:55:50;5.50;99.90
7016;DHT22;3548;48.402;9.990;2024-01-06T02:58:16;5.40;99.90
7016;DHT22;3548;48.402;9.990;2024-01-06T03:00:41;5.40;99.90
7016;DHT22;3548;48.402;9.990;2024-01-06T03:03:07;5.40;99.90
7016;DHT22;3548;48.402;9.990;2024-01-06T03:05:32;5.40;99.90
7016;DHT22;3548;48.402;9.990;2024-01-06T03:07:58;5.40;99.90
7016;DHT22;3548;48.402;9.990;2024-01-06T03:10:23;5.50;99.90
7016;DHT22;3548;48.402;9.990;2024-01-06T03:12:49;5.50;99.90
7016;DHT22;3548;48.402;9.990;2024-01-06T03:15:14;5.40;99.90
7016;DHT22;3548;48.402;9.990;2024-01-06T03:17:40;5.40;99.90
7016;DHT22;3548;48.402;9.990;2024-01-06T03:20:06;5.40;99.90
7016;DHT22;3548;48.402;9.990;2024-01-06T03:22:32;5.40;99.90
7016;DHT22;3548;48.402;9.990;2024-01-06T03:24:58;5.40;99.90
7016;DHT22;3548;48.402;9.990;2024-01-06T03:27:24;5.40;99.90
7016;DHT22;3548;48.402;9.990;2024-01-06T03:29:49;5.30;99.90
7016;DHT22;3548;48.402;9.990;2024-01-06T03:32:15;5.30;99.90
7016;DHT22;3548;48.402;9.990;2024-01-06T03:34:41;5.20;99.90
7016;DHT22;3548;48.402;9.990;2024-01-06T03:37:07;5.20;99.90
7016;DHT22;3548;48.402;9.990;2024-01-06T03:39:32;5.20;99.90
7016;DHT22;3548;48.402;9.990;2024-01-06T03:41:59;5.20;99.90
7016;DHT22;3548;48.402;9.990;2024-01-06T03:44:25;5.10;99.90
7016;DHT22;3548;48.402;9.990;2024-01-06T03:46:56;5.10;99.90
7016;DHT22;3548;48.402;9.990;2024-01-06T03:49:22;5.10;99.90
7016;DHT22;3548;48.402;9.990;2024-01-06T03:51:48;5.20;99.90
7016;DHT22;3548;48.402;9.990;2024-01-06T03:54:13;5.20;99.90
7016;DHT22;3548;48.402;9.990;2024-01-06T03:56:39;5.20;99.90
7016;DHT22;3548;48.402;9.990;2024-01-06T03:59:04;5.20;99.90
7016;DHT22;3548;48.402;9.990;2024-01-06T04:01:30;5.30;99.90
7016;DHT22;3548;48.402;9.990;2024-01-06T04:04:00;5.30;99.90
7016;DHT22;3548;48.402;9.990;2024-01-06T04:06:26;5.30;99.90
7016;DHT22;3548;48.402;9.990;2024-01-06T04:08:52;5.30;99.90
7016;DHT22;3548;48.402;9.990;2024-01-06T04:11:20;5.30;99.90
7016;DHT22;3548;48.402;9.990;2024-01-06T04:13:46;5.40;99.90
7016;DHT22;3548;48.402;9.990;2024-01-06T04:16:11;5.40;99.90
7016;DHT22;3548;48.402;9.990;2024-01-06T04:18:37;5.40;99.90
7016;DHT22;3548;48.402;9.990;2024-01-06T04:21:03;5.40;99.90
7016;DHT22;3548;48.402;9.990;2024-01-06T04:23:28;5.40;99.90
7016;DHT22;3548;48.402;9.990;2024-01-06T04:25:54;5.40;99.90
7016;DHT22;3548;48.402;9.990;2024-01-06T04:28:19;5.40;99.90
7016;DHT22;3548;48.402;9.990;2024-01-06T04:30:45;5.40;99.90
7016;DHT22;3548;48.402;9.990;2024-01-06T04:33:10;5.40;99.90
7016;DHT22;3548;48.402;9.990;2024-01-06T04:35:36;5.40;99.90
7016;DHT22;3548;48.402;9.990;2024-01-06T04:38:01;5.40;99.90
7016;DHT22;3548;48.402;9.990;2024-01-06T04:40:27;5.40;99.90
7016;DHT22;3548;48.402;9.990;2024-01-06T04:42:53;5.40;99.90
7016;DHT22;3548;48.402;9.990;2024-01-06T04:45:18;5.40;99.90
7016;DHT22;3548;48.402;9.990;2024-01-06T04:47:45;5.40;99.90
7016;DHT22;3548;48.402;9.990;2024-01-06T04:50:10;5.40;99.90
7016;DHT22;3548;48.402;9.990;2024-01-06T04:52:36;5.30;99.90
7016;DHT22;3548;48.402;9.990;2024-01-06T04:55:02;5.30;99.90
7016;DHT22;3548;48.402;9.990;2024-01-06T04:57:27;5.30;99.90
7016;DHT22;3548;48.402;9.990;2024-01-06T04:59:53;5.30;99.90
7016;DHT22;3548;48.402;9.990;2024-01-06T05:02:18;5.30;99.90
7016;DHT22;3548;48.402;9.990;2024-01-06T05:04:44;5.30;99.90
7016;DHT22;3548;48.402;9.990;2024-01-06T05:07:10;5.30;99.90
7016;DHT22;3548;48.402;9.990;2024-01-06T05:09:35;5.30;99.90
7016;DHT22;3548;48.402;9.990;2024-01-06T05:12:01;5.30;99.90
7016;DHT22;3548;48.402;9.990;2024-01-06T05:14:26;5.30;99.90
7016;DHT22;3548;48.402;9.990;2024-01-06T05:16:52;5.20;99.90
7016;DHT22;3548;48.402;9.990;2024-01-06T05:19:17;5.20;99.90
7016;DHT22;3548;48.402;9.990;2024-01-06T05:21:47;5.20;99.90
7016;DHT22;3548;48.402;9.990;2024-01-06T05:24:12;5.20;99.90
7016;DHT22;3548;48.402;9.990;2024-01-06T05:26:38;5.20;99.90
7016;DHT22;3548;48.402;9.990;2024-01-06T05:29:04;5.30;99.90
7016;DHT22;3548;48.402;9.990;2024-01-06T05:31:29;5.30;99.90
7016;DHT22;3548;48.402;9.990;2024-01-06T05:33:55;5.30;99.90
7016;DHT22;3548;48.402;9.990;2024-01-06T05:36:20;5.30;99.90
7016;DHT22;3548;48.402;9.990;2024-01-06T05:38:46;5.30;99.90
7016;DHT22;3548;48.402;9.990;2024-01-06T05:41:11;5.30;99.90
7016;DHT22;3548;48.402;9.990;2024-01-06T05:43:37;5.30;99.90
7016;DHT22;3548;48.402;9.990;2024-01-06T05:46:02;5.30;99.90
7016;DHT22;3548;48.402;9.990;2024-01-06T05:48:28;5.30;99.90
7016;DHT22;3548;48.402;9.990;2024-01-06T05:50:53;5.30;99.90
7016;DHT22;3548;48.402;9.990;2024-01-06T05:53:19;5.30;99.90
7016;DHT22;3548;48.402;9.990;2024-01-06T05:55:45;5.30;99.90
7016;DHT22;3548;48.402;9.990;2024-01-06T05:58:10;5.30;99.90
7016;DHT22;3548;48.402;9.990;2024-01-06T06:00:36;5.30;99.90
7016;DHT22;3548;48.402;9.990;2024-01-06T06:03:01;5.30;99.90
7016;DHT22;3548;48.402;9.990;2024-01-06T06:05:27;5.30;99.90
7016;DHT22;3548;48.402;9.990;2024-01-06T06:07:52;5.30;99.90
7016;DHT22;3548;48.402;9.990;2024-01-06T06:10:18;5.30;99.90
7016;DHT22;3548;48.402;9.990;2024-01-06T06:12:44;5.20;99.90
7016;DHT22;3548;48.402;9.990;2024-01-06T06:15:10;5.20;99.90
7016;DHT22;3548;48.402;9.990;2024-01-06T06:17:36;5.20;99.90
7016;DHT22;3548;48.402;9.990;2024-01-06T06:20:02;5.20;99.90
7016;DHT22;3548;48.402;9.990;2024-01-06T06:22:28;5.20;99.90
7016;DHT22;3548;48.402;9.990;2024-01-06T06:24:58;5.10;99.90
7016;DHT22;3548;48.402;9.990;2024-01-06T06:27:24;5.10;99.90
7016;DHT22;3548;48.402;9.990;2024-01-06T06:29:49;5.10;99.90
7016;DHT22;3548;48.402;9.990;2024-01-06T06:32:15;5.00;99.90
7016;DHT22;3548;48.402;9.990;2024-01-06T06:34:41;5.00;99.90
7016;DHT22;3548;48.402;9.990;2024-01-06T06:37:07;5.00;99.90
7016;DHT22;3548;48.402;9.990;2024-01-06T06:39:33;5.00;99.90
7016;DHT22;3548;48.402;9.990;2024-01-06T06:41:59;5.10;99.90
7016;DHT22;3548;48.402;9.990;2024-01-06T06:44:25;5.00;99.90
7016;DHT22;3548;48.402;9.990;2024-01-06T06:46:50;5.00;99.90
7016;DHT22;3548;48.402;9.990;2024-01-06T06:49:16;5.00;99.90
7016;DHT22;3548;48.402;9.990;2024-01-06T06:51:41;5.00;99.90
7016;DHT22;3548;48.402;9.990;2024-01-06T06:54:12;5.00;99.90
7016;DHT22;3548;48.402;9.990;2024-01-06T06:56:38;5.10;99.90
7016;DHT22;3548;48.402;9.990;2024-01-06T06:59:03;5.10;99.90
7016;DHT22;3548;48.402;9.990;2024-01-06T07:01:30;5.10;99.90
7016;DHT22;3548;48.402;9.990;2024-01-06T07:03:56;5.10;99.90
7016;DHT22;3548;48.402;9.990;2024-01-06T07:06:21;5.10;99.90
7016;DHT22;3548;48.402;9.990;2024-01-06T07:08:47;5.00;99.90
7016;DHT22;3548;48.402;9.990;2024-01-06T07:11:12;5.00;99.90
7016;DHT22;3548;48.402;9.990;2024-01-06T07:13:40;5.00;99.90
7016;DHT22;3548;48.402;9.990;2024-01-06T07:16:06;5.00;99.90
7016;DHT22;3548;48.402;9.990;2024-01-06T07:18:32;4.90;99.90
7016;DHT22;3548;48.402;9.990;2024-01-06T07:20:58;5.00;99.90
7016;DHT22;3548;48.402;9.990;2024-01-06T07:23:23;5.00;99.90
7016;DHT22;3548;48.402;9.990;2024-01-06T07:25:49;5.00;99.90
7016;DHT22;3548;48.402;9.990;2024-01-06T07:28:14;4.90;99.90
7016;DHT22;3548;48.402;9.990;2024-01-06T07:30:40;4.90;99.90
7016;DHT22;3548;48.402;9.990;2024-01-06T07:33:06;4.90;99.90
7016;DHT22;3548;48.402;9.990;2024-01-06T07:35:31;4.90;99.90
7016;DHT22;3548;48.402;9.990;2024-01-06T07:37:57;4.90;99.90
7016;DHT22;3548;48.402;9.990;2024-01-06T07:40:22;5.00;99.90
7016;DHT22;3548;48.402;9.990;2024-01-06T07:42:48;5.00;99.90
7016;DHT22;3548;48.402;9.990;2024-01-06T07:45:14;5.00;99.90
7016;DHT22;3548;48.402;9.990;2024-01-06T07:47:40;5.10;99.90
7016;DHT22;3548;48.402;9.990;2024-01-06T07:50:06;5.10;99.90
7016;DHT22;3548;48.402;9.990;2024-01-06T07:52:31;5.10;99.90
7016;DHT22;3548;48.402;9.990;2024-01-06T07:54:58;5.10;99.90
7016;DHT22;3548;48.402;9.990;2024-01-06T07:57:23;5.10;99.90
7016;DHT22;3548;48.402;9.990;2024-01-06T07:59:50;5.10;99.90
7016;DHT22;3548;48.402;9.990;2024-01-06T08:02:16;5.10;99.90
7016;DHT22;3548;48.402;9.990;2024-01-06T08:04:42;5.10;99.90
7016;DHT22;3548;48.402;9.990;2024-01-06T08:07:08;5.10;99.90
7016;DHT22;3548;48.402;9.990;2024-01-06T08:09:33;5.00;99.90
7016;DHT22;3548;48.402;9.990;2024-01-06T08:11:59;5.00;99.90
7016;DHT22;3548;48.402;9.990;2024-01-06T08:14:24;5.00;99.90
7016;DHT22;3548;48.402;9.990;2024-01-06T08:16:50;5.00;99.90
7016;DHT22;3548;48.402;9.990;2024-01-06T08:19:15;5.00;99.90
7016;DHT22;3548;48.402;9.990;2024-01-06T08:21:41;5.00;99.90
7016;DHT22;3548;48.402;9.990;2024-01-06T08:24:07;5.00;99.90
7016;DHT22;3548;48.402;9.990;2024-01-06T08:26:32;5.10;99.90
7016;DHT22;3548;48.402;9.990;2024-01-06T08:28:58;5.10;99.90
7016;DHT22;3548;48.402;9.990;2024-01-06T08:31:24;5.10;99.90
7016;DHT22;3548;48.402;9.990;2024-01-06T08:33:49;5.10;99.90
7016;DHT22;3548;48.402;9.990;2024-01-06T08:36:15;5.10;99.90
7016;DHT22;3548;48.402;9.990;2024-01-06T08:38:41;5.20;99.90
7016;DHT22;3548;48.402;9.990;2024-01-06T08:41:07;5.20;99.90
7016;DHT22;3548;48.402;9.990;2024-01-06T08:43:32;5.20;99.90
7016;DHT22;3548;48.402;9.990;2024-01-06T08:45:58;5.20;99.90
7016;DHT22;3548;48.402;9.990;2024-01-06T08:48:24;5.20;99.90
7016;DHT22;3548;48.402;9.990;2024-01-06T08:50:50;5.20;99.90
7016;DHT22;3548;48.402;9.990;2024-01-06T08:53:16;5.20;99.90
7016;DHT22;3548;48.402;9.990;2024-01-06T08:55:41;5.20;99.90
7016;DHT22;3548;48.402;9.990;2024-01-06T08:58:07;5.10;99.90
7016;DHT22;3548;48.402;9.990;2024-01-06T09:00:33;5.10;99.90
7016;DHT22;3548;48.402;9.990;2024-01-06T09:02:58;5.20;99.90
7016;DHT22;3548;48.402;9.990;2024-01-06T09:05:25;5.20;99.90
7016;DHT22;3548;48.402;9.990;2024-01-06T09:07:50;5.20;99.90
7016;DHT22;3548;48.402;9.990;2024-01-06T09:10:19;5.10;99.90
7016;DHT22;3548;48.402;9.990;2024-01-06T09:12:45;5.20;99.90
7016;DHT22;3548;48.402;9.990;2024-01-06T09:15:11;5.20;99.90
7016;DHT22;3548;48.402;9.990;2024-01-06T09:17:36;5.30;99.90
7016;DHT22;3548;48.402;9.990;2024-01-06T09:20:02;5.30;99.90
7016;DHT22;3548;48.402;9.990;2024-01-06T09:22:28;5.30;99.90
7016;DHT22;3548;48.402;9.990;2024-01-06T09:24:54;5.30;99.90
7016;DHT22;3548;48.402;9.990;2024-01-06T09:27:20;5.20;99.90
7016;DHT22;3548;48.402;9.990;2024-01-06T09:29:45;5.20;99.90
7016;DHT22;3548;48.402;9.990;2024-01-06T09:32:11;5.10;99.90
7016;DHT22;3548;48.402;9.990;2024-01-06T09:34:38;5.20;99.90
7016;DHT22;3548;48.402;9.990;2024-01-06T09:37:04;5.20;99.90
7016;DHT22;3548;48.402;9.990;2024-01-06T09:39:29;5.20;99.90
7016;DHT22;3548;48.402;9.990;2024-01-06T09:41:57;5.20;99.90
7016;DHT22;3548;48.402;9.990;2024-01-06T09:44:23;5.30;99.90
7016;DHT22;3548;48.402;9.990;2024-01-06T09:46:49;5.20;99.90
7016;DHT22;3548;48.402;9.990;2024-01-06T09:49:18;5.20;99.90
7016;DHT22;3548;48.402;9.990;2024-01-06T09:51:49;5.20;99.90
7016;DHT22;3548;48.402;9.990;2024-01-06T09:54:21;5.10;99.90
7016;DHT22;3548;48.402;9.990;2024-01-06T09:56:48;5.20;99.90
7016;DHT22;3548;48.402;9.990;2024-01-06T09:59:14;5.20;99.90
7016;DHT22;3548;48.402;9.990;2024-01-06T10:01:40;5.20;99.90
7016;DHT22;3548;48.402;9.990;2024-01-06T10:04:06;5.20;99.90
7016;DHT22;3548;48.402;9.990;2024-01-06T10:06:32;5.20;99.90
7016;DHT22;3548;48.402;9.990;2024-01-06T10:08:58;5.30;99.90
7016;DHT22;3548;48.402;9.990;2024-01-06T10:11:23;5.30;99.90
7016;DHT22;3548;48.402;9.990;2024-01-06T10:13:50;5.30;99.90
7016;DHT22;3548;48.402;9.990;2024-01-06T10:16:24;5.30;99.90
7016;DHT22;3548;48.402;9.990;2024-01-06T10:18:50;5.30;99.90
7016;DHT22;3548;48.402;9.990;2024-01-06T10:21:15;5.30;99.90
7016;DHT22;3548;48.402;9.990;2024-01-06T10:23:43;5.30;99.90
7016;DHT22;3548;48.402;9.990;2024-01-06T10:26:13;5.30;99.90
7016;DHT22;3548;48.402;9.990;2024-01-06T10:28:39;5.30;99.90
7016;DHT22;3548;48.402;9.990;2024-01-06T10:31:04;5.30;99.90
7016;DHT22;3548;48.402;9.990;2024-01-06T10:33:32;5.30;99.90
7016;DHT22;3548;48.402;9.990;2024-01-06T10:36:00;5.30;99.90
7016;DHT22;3548;48.402;9.990;2024-01-06T10:38:26;5.20;99.90
7016;DHT22;3548;48.402;9.990;2024-01-06T10:40:59;5.20;99.90
7016;DHT22;3548;48.402;9.990;2024-01-06T10:43:26;5.30;99.90
7016;DHT22;3548;48.402;9.990;2024-01-06T10:45:56;5.20;99.90
7016;DHT22;3548;48.402;9.990;2024-01-06T10:48:25;5.30;99.90
7016;DHT22;3548;48.402;9.990;2024-01-06T10:50:51;5.30;99.90
7016;DHT22;3548;48.402;9.990;2024-01-06T10:53:20;5.40;99.90
7016;DHT22;3548;48.402;9.990;2024-01-06T10:55:46;5.40;99.90
7016;DHT22;3548;48.402;9.990;2024-01-06T10:58:14;5.40;99.90
7016;DHT22;3548;48.402;9.990;2024-01-06T11:00:41;5.50;99.90
7016;DHT22;3548;48.402;9.990;2024-01-06T11:03:09;5.50;99.90
7016;DHT22;3548;48.402;9.990;2024-01-06T11:05:36;5.50;99.90
7016;DHT22;3548;48.402;9.990;2024-01-06T11:08:03;5.50;99.90
7016;DHT22;3548;48.402;9.990;2024-01-06T11:10:30;5.50;99.90
7016;DHT22;3548;48.402;9.990;2024-01-06T11:13:12;5.60;99.90
7016;DHT22;3548;48.402;9.990;2024-01-06T11:15:50;5.60;99.90
7016;DHT22;3548;48.402;9.990;2024-01-06T11:18:35;5.60;99.90
7016;DHT22;3548;48.402;9.990;2024-01-06T11:21:18;5.60;99.90
7016;DHT22;3548;48.402;9.990;2024-01-06T11:24:19;5.60;99.90
7016;DHT22;3548;48.402;9.990;2024-01-06T11:26:51;5.60;99.90
7016;DHT22;3548;48.402;9.990;2024-01-06T11:29:19;5.60;99.90
7016;DHT22;3548;48.402;9.990;2024-01-06T11:34:48;5.60;99.90
7016;DHT22;3548;48.402;9.990;2024-01-06T11:37:14;5.50;99.90
7016;DHT22;3548;48.402;9.990;2024-01-06T11:39:44;5.50;99.90
7016;DHT22;3548;48.402;9.990;2024-01-06T11:42:10;5.50;99.90
7016;DHT22;3548;48.402;9.990;2024-01-06T11:44:38;5.60;99.90
7016;DHT22;3548;48.402;9.990;2024-01-06T11:47:04;5.60;99.90
7016;DHT22;3548;48.402;9.990;2024-01-06T11:49:31;5.60;99.90
7016;DHT22;3548;48.402;9.990;2024-01-06T11:51:57;5.70;99.90
7016;DHT22;3548;48.402;9.990;2024-01-06T11:54:23;5.70;99.90
7016;DHT22;3548;48.402;9.990;2024-01-06T11:56:49;5.80;99.90
7016;DHT22;3548;48.402;9.990;2024-01-06T11:59:14;5.80;99.90
7016;DHT22;3548;48.402;9.990;2024-01-06T12:01:40;5.80;99.90
7016;DHT22;3548;48.402;9.990;2024-01-06T12:04:06;5.80;99.90
7016;DHT22;3548;48.402;9.990;2024-01-06T12:06:32;5.90;99.90
7016;DHT22;3548;48.402;9.990;2024-01-06T12:09:05;5.90;99.90
7016;DHT22;3548;48.402;9.990;2024-01-06T12:11:31;5.80;99.90
7016;DHT22;3548;48.402;9.990;2024-01-06T12:13:57;5.80;99.90
7016;DHT22;3548;48.402;9.990;2024-01-06T12:16:23;5.90;99.90
7016;DHT22;3548;48.402;9.990;2024-01-06T12:18:53;5.90;99.90
7016;DHT22;3548;48.402;9.990;2024-01-06T12:21:22;6.00;99.90
7016;DHT22;3548;48.402;9.990;2024-01-06T12:23:47;6.00;99.90
7016;DHT22;3548;48.402;9.990;2024-01-06T12:26:13;6.00;99.90
7016;DHT22;3548;48.402;9.990;2024-01-06T12:28:39;5.90;99.90
7016;DHT22;3548;48.402;9.990;2024-01-06T12:31:08;5.90;99.90
7016;DHT22;3548;48.402;9.990;2024-01-06T12:33:35;5.90;99.90
7016;DHT22;3548;48.402;9.990;2024-01-06T12:36:03;5.90;99.90
7016;DHT22;3548;48.402;9.990;2024-01-06T12:38:29;6.00;99.90
7016;DHT22;3548;48.402;9.990;2024-01-06T12:40:55;5.90;99.90
7016;DHT22;3548;48.402;9.990;2024-01-06T12:43:21;5.90;99.90
7016;DHT22;3548;48.402;9.990;2024-01-06T12:45:47;5.90;99.90
7016;DHT22;3548;48.402;9.990;2024-01-06T12:48:12;5.80;99.90
7016;DHT22;3548;48.402;9.990;2024-01-06T12:50:38;5.80;99.90
7016;DHT22;3548;48.402;9.990;2024-01-06T12:53:04;5.80;99.90
7016;DHT22;3548;48.402;9.990;2024-01-06T12:55:29;5.80;99.90
7016;DHT22;3548;48.402;9.990;2024-01-06T12:57:55;5.80;99.90
7016;DHT22;3548;48.402;9.990;2024-01-06T13:00:21;5.80;99.90
7016;DHT22;3548;48.402;9.990;2024-01-06T13:02:46;5.90;99.90
7016;DHT22;3548;48.402;9.990;2024-01-06T13:05:12;5.90;99.90
7016;DHT22;3548;48.402;9.990;2024-01-06T13:07:39;6.00;99.90
7016;DHT22;3548;48.402;9.990;2024-01-06T13:10:05;6.00;99.90
7016;DHT22;3548;48.402;9.990;2024-01-06T13:12:30;6.00;99.90
7016;DHT22;3548;48.402;9.990;2024-01-06T13:14:56;6.00;99.90
7016;DHT22;3548;48.402;9.990;2024-01-06T13:17:22;5.90;99.90
7016;DHT22;3548;48.402;9.990;2024-01-06T13:19:48;5.90;99.90
7016;DHT22;3548;48.402;9.990;2024-01-06T13:22:13;5.80;99.90
7016;DHT22;3548;48.402;9.990;2024-01-06T13:24:40;5.80;99.90
7016;DHT22;3548;48.402;9.990;2024-01-06T13:27:06;5.70;99.90
7016;DHT22;3548;48.402;9.990;2024-01-06T13:29:32;5.60;99.90
7016;DHT22;3548;48.402;9.990;2024-01-06T13:31:57;5.60;99.90
7016;DHT22;3548;48.402;9.990;2024-01-06T13:34:25;5.50;99.90
7016;DHT22;3548;48.402;9.990;2024-01-06T13:36:50;5.50;99.90
7016;DHT22;3548;48.402;9.990;2024-01-06T13:39:16;5.40;99.90
7016;DHT22;3548;48.402;9.990;2024-01-06T13:41:48;5.40;99.90
7016;DHT22;3548;48.402;9.990;2024-01-06T13:44:14;5.40;99.90
7016;DHT22;3548;48.402;9.990;2024-01-06T13:46:40;5.40;99.90
7016;DHT22;3548;48.402;9.990;2024-01-06T13:49:13;5.40;99.90
7016;DHT22;3548;48.402;9.990;2024-01-06T13:51:39;5.40;99.90
7016;DHT22;3548;48.402;9.990;2024-01-06T13:54:05;5.40;99.90
7016;DHT22;3548;48.402;9.990;2024-01-06T13:56:31;5.50;99.90
7016;DHT22;3548;48.402;9.990;2024-01-06T13:58:57;5.50;99.90
7016;DHT22;3548;48.402;9.990;2024-01-06T14:01:23;5.50;99.90
7016;DHT22;3548;48.402;9.990;2024-01-06T14:03:49;5.50;99.90
7016;DHT22;3548;48.402;9.990;2024-01-06T14:06:15;5.60;99.90
7016;DHT22;3548;48.402;9.990;2024-01-06T14:08:42;5.60;99.90
7016;DHT22;3548;48.402;9.990;2024-01-06T14:11:09;5.60;99.90
7016;DHT22;3548;48.402;9.990;2024-01-06T14:13:34;5.60;99.90
7016;DHT22;3548;48.402;9.990;2024-01-06T14:16:00;5.60;99.90
7016;DHT22;3548;48.402;9.990;2024-01-06T14:18:25;5.60;99.90
7016;DHT22;3548;48.402;9.990;2024-01-06T14:20:53;5.60;99.90
7016;DHT22;3548;48.402;9.990;2024-01-06T14:23:21;5.50;99.90
7016;DHT22;3548;48.402;9.990;2024-01-06T14:25:46;5.50;99.90
7016;DHT22;3548;48.402;9.990;2024-01-06T14:28:12;5.50;99.90
7016;DHT22;3548;48.402;9.990;2024-01-06T14:30:38;5.50;99.90
7016;DHT22;3548;48.402;9.990;2024-01-06T14:33:03;5.50;99.90
7016;DHT22;3548;48.402;9.990;2024-01-06T14:35:29;5.50;99.90
7016;DHT22;3548;48.402;9.990;2024-01-06T14:37:54;5.50;99.90
7016;DHT22;3548;48.402;9.990;2024-01-06T14:40:20;5.40;99.90
7016;DHT22;3548;48.402;9.990;2024-01-06T14:42:45;5.40;99.90
7016;DHT22;3548;48.402;9.990;2024-01-06T14:45:11;5.30;99.90
7016;DHT22;3548;48.402;9.990;2024-01-06T14:47:37;5.20;99.90
7016;DHT22;3548;48.402;9.990;2024-01-06T14:50:02;5.20;99.90
7016;DHT22;3548;48.402;9.990;2024-01-06T14:52:28;5.10;99.90
7016;DHT22;3548;48.402;9.990;2024-01-06T14:54:54;5.10;99.90
7016;DHT22;3548;48.402;9.990;2024-01-06T14:57:19;5.20;99.90
7016;DHT22;3548;48.402;9.990;2024-01-06T14:59:45;5.20;99.90
7016;DHT22;3548;48.402;9.990;2024-01-06T15:02:10;5.20;99.90
7016;DHT22;3548;48.402;9.990;2024-01-06T15:04:39;5.20;99.90
7016;DHT22;3548;48.402;9.990;2024-01-06T15:07:04;5.20;99.90
7016;DHT22;3548;48.402;9.990;2024-01-06T15:09:30;5.20;99.90
7016;DHT22;3548;48.402;9.990;2024-01-06T15:11:55;5.20;99.90
7016;DHT22;3548;48.402;9.990;2024-01-06T15:14:21;5.20;99.90
7016;DHT22;3548;48.402;9.990;2024-01-06T15:16:46;5.20;99.90
7016;DHT22;3548;48.402;9.990;2024-01-06T15:19:13;5.20;99.90
7016;DHT22;3548;48.402;9.990;2024-01-06T15:21:39;5.20;99.90
7016;DHT22;3548;48.402;9.990;2024-01-06T15:24:05;5.10;99.90
7016;DHT22;3548;48.402;9.990;2024-01-06T15:26:30;5.00;99.90
7016;DHT22;3548;48.402;9.990;2024-01-06T15:28:56;4.90;99.90
7016;DHT22;3548;48.402;9.990;2024-01-06T15:31:25;4.90;99.90
7016;DHT22;3548;48.402;9.990;2024-01-06T15:33:51;4.80;99.90
7016;DHT22;3548;48.402;9.990;2024-01-06T15:36:16;4.80;99.90
7016;DHT22;3548;48.402;9.990;2024-01-06T15:38:42;4.80;99.90
7016;DHT22;3548;48.402;9.990;2024-01-06T15:41:08;4.80;99.90
7016;DHT22;3548;48.402;9.990;2024-01-06T15:43:33;4.70;99.90
7016;DHT22;3548;48.402;9.990;2024-01-06T15:45:59;4.80;99.90
7016;DHT22;3548;48.402;9.990;2024-01-06T15:48:24;4.70;99.90
7016;DHT22;3548;48.402;9.990;2024-01-06T15:50:50;4.70;99.90
7016;DHT22;3548;48.402;9.990;2024-01-06T15:53:17;4.80;99.90
7016;DHT22;3548;48.402;9.990;2024-01-06T15:55:43;4.70;99.90
7016;DHT22;3548;48.402;9.990;2024-01-06T15:58:09;4.80;99.90
7016;DHT22;3548;48.402;9.990;2024-01-06T16:00:34;4.70;99.90
7016;DHT22;3548;48.402;9.990;2024-01-06T16:03:00;4.70;99.90
7016;DHT22;3548;48.402;9.990;2024-01-06T16:05:26;4.70;99.90
7016;DHT22;3548;48.402;9.990;2024-01-06T16:07:52;4.70;99.90
7016;DHT22;3548;48.402;9.990;2024-01-06T16:10:20;4.80;99.90
7016;DHT22;3548;48.402;9.990;2024-01-06T16:12:50;4.80;99.90